createdAt,value
2023-04-15T00:01:19.840Z,13.27
2023-04-15T00:03:48.756Z,13.75
2023-04-15T00:06:17.321Z,13.32
2023-04-15T00:08:45.743Z,14.80
2023-04-15T00:11:15.467Z,14.18
2023-04-15T00:13:44.357Z,14.65
2023-04-15T00:16:12.572Z,15.85
2023-04-15T00:18:41.601Z,17.77
2023-04-15T00:21:10.141Z,15.18
2023-04-15T00:23:38.278Z,16.08
2023-04-15T00:26:07.564Z,19.20
2023-04-15T00:28:37.086Z,17.10
2023-04-15T00:31:05.812Z,15.23
2023-04-15T00:33:34.366Z,14.75
2023-04-15T00:36:02.845Z,15.27
2023-04-15T00:38:31.533Z,15.07
2023-04-15T00:41:00.374Z,17.30
2023-04-15T00:43:29.738Z,16.30
2023-04-15T00:46:00.690Z,15.98
2023-04-15T00:48:29.387Z,15.88
2023-04-15T00:50:57.829Z,17.15
2023-04-15T00:53:26.151Z,16.35
2023-04-15T00:55:55.113Z,14.35
2023-04-15T00:58:23.334Z,14.27
2023-04-15T01:00:54.625Z,14.95
2023-04-15T01:03:24.548Z,16.40
2023-04-15T01:05:58.208Z,14.25
2023-04-15T01:08:28.655Z,16.90
2023-04-15T01:10:58.233Z,15.63
2023-04-15T01:13:26.696Z,17.30
2023-04-15T01:15:55.270Z,19.10
2023-04-15T01:18:25.296Z,15.65
2023-04-15T01:20:53.758Z,20.50
2023-04-15T01:23:26.417Z,24.30
2023-04-15T01:25:57.415Z,21.77
2023-04-15T01:28:25.968Z,19.20
2023-04-15T01:31:08.080Z,16.13
2023-04-15T01:33:39.294Z,16.95
2023-04-15T01:36:09.804Z,17.58
2023-04-15T01:38:38.473Z,21.02
2023-04-15T01:41:08.694Z,20.05
2023-04-15T01:43:37.856Z,18.02
2023-04-15T01:46:07.123Z,20.48
2023-04-15T01:48:35.916Z,19.15
2023-04-15T01:51:05.829Z,17.67
2023-04-15T01:53:34.608Z,16.48
2023-04-15T01:56:04.325Z,19.48
2023-04-15T01:58:33.852Z,20.63
2023-04-15T02:01:03.114Z,18.80
2023-04-15T02:03:33.771Z,19.83
2023-04-15T02:06:02.849Z,19.83
2023-04-15T02:08:31.248Z,19.58
2023-04-15T02:11:01.252Z,20.20
2023-04-15T02:13:30.399Z,20.48
2023-04-15T02:16:01.075Z,19.13
2023-04-15T02:18:29.626Z,20.00
2023-04-15T02:20:59.046Z,20.42
2023-04-15T02:23:27.569Z,20.38
2023-04-15T02:25:55.967Z,22.70
2023-04-15T02:28:24.526Z,20.45
2023-04-15T02:30:54.433Z,20.20
2023-04-15T02:33:24.924Z,18.80
2023-04-15T02:35:53.444Z,23.65
2023-04-15T02:38:21.995Z,18.70
2023-04-15T02:40:51.119Z,20.13
2023-04-15T02:43:19.572Z,19.05
2023-04-15T02:45:48.203Z,19.48
2023-04-15T02:48:19.535Z,19.75
2023-04-15T02:50:49.242Z,18.08
2023-04-15T02:53:19.911Z,19.65
2023-04-15T02:55:48.215Z,20.85
2023-04-15T02:58:16.419Z,19.23
2023-04-15T03:04:57.832Z,19.05
2023-04-15T03:07:28.072Z,21.92
2023-04-15T03:09:56.476Z,22.02
2023-04-15T03:12:24.867Z,19.92
2023-04-15T03:14:56.070Z,20.30
2023-04-15T03:17:31.312Z,19.42
2023-04-15T03:20:00.720Z,23.92
2023-04-15T03:22:31.153Z,19.25
2023-04-15T03:24:59.804Z,20.15
2023-04-15T03:27:28.109Z,20.13
2023-04-15T03:30:00.613Z,25.77
2023-04-15T03:32:32.506Z,21.75
2023-04-15T03:35:00.897Z,20.00
2023-04-15T03:37:30.715Z,18.17
2023-04-15T03:39:59.090Z,18.00
2023-04-15T03:42:28.588Z,20.00
2023-04-15T03:44:56.822Z,21.20
2023-04-15T03:47:25.126Z,16.98
2023-04-15T03:49:53.402Z,22.83
2023-04-15T03:52:21.648Z,18.35
2023-04-15T03:54:51.569Z,17.70
2023-04-15T03:57:19.732Z,18.45
2023-04-15T03:59:48.002Z,18.60
2023-04-15T04:02:16.425Z,20.90
2023-04-15T04:04:44.859Z,19.98
2023-04-15T04:07:17.179Z,17.25
2023-04-15T04:09:47.351Z,22.02
2023-04-15T04:12:17.062Z,25.77
2023-04-15T04:14:45.431Z,20.58
2023-04-15T04:17:15.422Z,19.45
2023-04-15T04:19:43.648Z,21.83
2023-04-15T04:22:12.249Z,21.35
2023-04-15T04:24:40.435Z,19.52
2023-04-15T04:27:08.573Z,19.98
2023-04-15T04:29:38.147Z,20.58
2023-04-15T04:32:06.892Z,21.55
2023-04-15T04:34:35.101Z,19.40
2023-04-15T04:37:03.259Z,24.25
2023-04-15T04:39:31.657Z,20.27
2023-04-15T04:42:00.059Z,17.40
2023-04-15T04:44:28.570Z,22.17
2023-04-15T04:46:58.085Z,19.08
2023-04-15T04:49:26.415Z,19.02
2023-04-15T04:51:54.896Z,17.50
2023-04-15T04:54:23.691Z,17.45
2023-04-15T04:56:51.860Z,19.83
2023-04-15T04:59:20.120Z,18.90
2023-04-15T05:01:48.315Z,17.88
2023-04-15T05:04:17.913Z,19.50
2023-04-15T05:06:46.173Z,17.88
2023-04-15T05:09:14.668Z,19.25
2023-04-15T05:11:42.926Z,19.08
2023-04-15T05:14:11.158Z,19.80
2023-04-15T05:16:39.288Z,19.73
2023-04-15T05:19:07.821Z,21.25
2023-04-15T05:21:39.410Z,20.45
2023-04-15T05:24:08.119Z,17.42
2023-04-15T05:26:36.285Z,19.83
2023-04-15T05:29:04.660Z,18.90
2023-04-15T05:31:32.982Z,17.52
2023-04-15T05:34:01.562Z,17.13
2023-04-15T05:36:29.867Z,18.85
2023-04-15T05:38:59.639Z,17.58
2023-04-15T05:41:28.022Z,17.35
2023-04-15T05:43:56.278Z,18.08
2023-04-15T05:46:24.418Z,18.00
2023-04-15T05:48:53.801Z,16.20
2023-04-15T05:51:23.102Z,15.50
2023-04-15T05:53:51.333Z,15.80
2023-04-15T05:56:21.417Z,17.08
2023-04-15T05:58:50.588Z,15.90
2023-04-15T06:01:20.739Z,16.83
2023-04-15T06:03:49.068Z,18.38
2023-04-15T06:06:17.331Z,16.88
2023-04-15T06:08:45.570Z,16.80
2023-04-15T06:11:13.810Z,15.27
2023-04-15T06:13:43.614Z,16.05
2023-04-15T06:16:11.969Z,14.68
2023-04-15T06:18:40.385Z,16.42
2023-04-15T06:21:08.523Z,16.92
2023-04-15T06:23:36.954Z,14.73
2023-04-15T06:26:05.155Z,13.63
2023-04-15T06:28:34.055Z,13.60
2023-04-15T06:31:03.750Z,13.00
2023-04-15T06:33:32.313Z,14.68
2023-04-15T06:36:00.871Z,13.27
2023-04-15T06:38:29.144Z,15.55
2023-04-15T06:40:57.686Z,12.90
2023-04-15T06:43:25.986Z,13.05
2023-04-15T06:45:54.114Z,12.18
2023-04-15T06:48:23.857Z,12.25
2023-04-15T06:50:52.179Z,11.02
2023-04-15T06:53:20.451Z,13.82
2023-04-15T06:55:48.574Z,10.48
2023-04-15T06:58:17.260Z,11.57
2023-04-15T07:00:45.435Z,11.75
2023-04-15T07:03:15.170Z,12.57
2023-04-15T07:05:44.952Z,11.07
2023-04-15T07:08:14.071Z,10.15
2023-04-15T07:10:42.327Z,9.43
2023-04-15T07:13:10.568Z,12.88
2023-04-15T07:15:38.703Z,9.40
2023-04-15T07:18:06.925Z,9.82
2023-04-15T07:20:35.114Z,9.23
2023-04-15T07:23:11.356Z,9.65
2023-04-15T07:25:39.588Z,8.20
2023-04-15T07:28:07.785Z,8.00
2023-04-15T07:30:35.971Z,11.30
2023-04-15T07:33:04.525Z,8.70
2023-04-15T07:35:33.326Z,8.23
2023-04-15T07:38:01.775Z,10.65
2023-04-15T07:40:31.800Z,10.10
2023-04-15T07:43:00.070Z,12.10
2023-04-15T07:45:28.626Z,9.77
2023-04-15T07:47:57.434Z,9.65
2023-04-15T07:50:26.294Z,8.20
2023-04-15T07:52:54.744Z,9.18
2023-04-15T07:55:23.510Z,8.43
2023-04-15T07:57:53.173Z,7.88
2023-04-15T08:00:21.394Z,7.60
2023-04-15T08:02:50.053Z,7.97
2023-04-15T08:05:18.544Z,9.50
2023-04-15T08:07:46.956Z,8.05
2023-04-15T08:10:16.303Z,8.00
2023-04-15T08:12:44.565Z,11.02
2023-04-15T08:15:14.262Z,8.35
2023-04-15T08:17:42.571Z,8.35
2023-04-15T08:20:11.578Z,12.80
2023-04-15T08:22:39.697Z,8.90
2023-04-15T08:25:09.134Z,8.25
2023-04-15T08:27:37.673Z,6.28
2023-04-15T08:30:07.081Z,8.65
2023-04-15T08:32:37.566Z,10.82
2023-04-15T08:35:06.692Z,9.15
2023-04-15T08:37:34.876Z,6.30
2023-04-15T08:40:03.485Z,7.10
2023-04-15T08:42:36.369Z,7.22
2023-04-15T08:45:06.612Z,7.20
2023-04-15T08:47:37.517Z,8.30
2023-04-15T08:50:06.640Z,6.05
2023-04-15T08:52:35.284Z,7.85
2023-04-15T08:55:04.974Z,6.07
2023-04-15T08:57:34.258Z,6.85
2023-04-15T09:00:05.504Z,4.88
2023-04-15T09:02:34.360Z,5.50
2023-04-15T09:05:06.430Z,4.93
2023-04-15T09:07:36.529Z,5.28
2023-04-15T09:10:05.513Z,5.18
2023-04-15T09:12:36.223Z,5.68
2023-04-15T09:15:05.225Z,4.90
2023-04-15T09:17:34.982Z,5.38
2023-04-15T09:20:13.151Z,4.15
2023-04-15T09:22:42.304Z,6.32
2023-04-15T09:25:29.209Z,4.30
2023-04-15T09:27:59.244Z,4.63
2023-04-15T09:30:28.490Z,4.57
2023-04-15T09:32:58.491Z,6.30
2023-04-15T09:35:29.208Z,4.68
2023-04-15T09:38:04.827Z,4.63
2023-04-15T09:40:37.884Z,4.60
2023-04-15T09:43:07.833Z,3.55
2023-04-15T09:45:38.509Z,4.38
2023-04-15T09:48:22.304Z,4.40
2023-04-15T09:50:56.573Z,4.55
2023-04-15T09:53:26.500Z,4.78
2023-04-15T09:55:56.281Z,5.40
2023-04-15T09:58:26.661Z,5.10
2023-04-15T10:00:56.522Z,3.75
2023-04-15T10:03:26.820Z,5.93
2023-04-15T10:05:58.020Z,6.57
2023-04-15T10:08:28.616Z,4.63
2023-04-15T10:10:57.202Z,4.75
2023-04-15T10:13:26.966Z,5.47
2023-04-15T10:16:00.555Z,4.38
2023-04-15T10:18:33.180Z,4.85
2023-04-15T10:21:03.539Z,3.92
2023-04-15T10:23:32.098Z,8.77
2023-04-15T10:26:01.234Z,6.25
2023-04-15T10:28:29.491Z,3.97
2023-04-15T10:30:58.474Z,6.28
2023-04-15T10:33:28.422Z,5.82
2023-04-15T10:35:57.497Z,5.05
2023-04-15T10:38:38.860Z,4.32
2023-04-15T10:41:20.371Z,5.30
2023-04-15T10:43:54.378Z,6.38
2023-04-15T10:46:37.288Z,4.43
2023-04-15T10:49:11.283Z,5.65
2023-04-15T10:51:42.568Z,7.78
2023-04-15T10:54:16.093Z,6.97
2023-04-15T10:56:44.845Z,6.47
2023-04-15T10:59:13.059Z,4.43
2023-04-15T11:01:56.813Z,6.35
2023-04-15T11:04:52.678Z,4.82
2023-04-15T11:07:41.434Z,5.53
2023-04-15T11:10:51.432Z,6.05
2023-04-15T11:13:28.395Z,5.60
2023-04-15T11:16:01.813Z,4.35
2023-04-15T11:18:32.917Z,4.72
2023-04-15T11:21:03.579Z,4.57
2023-04-15T11:23:37.574Z,10.32
2023-04-15T11:26:09.687Z,4.90
2023-04-15T11:28:41.223Z,6.35
2023-04-15T11:31:11.996Z,6.18
2023-04-15T11:33:56.578Z,7.13
2023-04-15T11:36:27.688Z,6.15
2023-04-15T11:38:56.334Z,6.65
2023-04-15T11:41:24.869Z,6.72
2023-04-15T11:43:54.690Z,7.32
2023-04-15T11:46:23.191Z,8.18
2023-04-15T11:48:51.850Z,10.70
2023-04-15T11:51:21.915Z,7.75
2023-04-15T11:53:52.126Z,6.20
2023-04-15T11:56:22.233Z,7.07
2023-04-15T11:58:53.285Z,7.43
2023-04-15T12:01:31.741Z,7.10
2023-04-15T12:04:01.559Z,6.22
2023-04-15T12:06:35.126Z,5.60
2023-04-15T12:09:09.416Z,5.95
2023-04-15T12:11:43.861Z,5.18
2023-04-15T12:14:22.853Z,7.63
2023-04-15T12:16:55.017Z,4.43
2023-04-15T12:19:28.792Z,2.90
2023-04-15T12:22:01.354Z,3.13
2023-04-15T12:24:32.691Z,4.13
2023-04-15T12:27:05.010Z,7.70
2023-04-15T12:29:34.680Z,4.20
2023-04-15T12:32:09.125Z,3.55
2023-04-15T12:34:38.906Z,3.35
2023-04-15T12:37:09.571Z,4.82
2023-04-15T12:39:39.803Z,4.40
2023-04-15T12:42:08.420Z,5.78
2023-04-15T12:44:37.446Z,4.80
2023-04-15T12:47:09.441Z,2.92
2023-04-15T12:49:37.975Z,5.82
2023-04-15T12:52:06.880Z,4.97
2023-04-15T12:54:36.119Z,5.85
2023-04-15T12:57:06.873Z,4.28
2023-04-15T12:59:36.250Z,4.75
2023-04-15T13:02:07.308Z,4.55
2023-04-15T13:04:35.696Z,4.70
2023-04-15T13:07:04.285Z,4.35
2023-04-15T13:09:32.691Z,3.08
2023-04-15T13:12:00.888Z,3.00
2023-04-15T13:14:35.665Z,2.63
2023-04-15T13:17:10.184Z,3.50
2023-04-15T13:19:40.771Z,2.03
2023-04-15T13:22:09.492Z,3.78
2023-04-15T13:24:39.313Z,5.57
2023-04-15T13:27:09.424Z,3.05
2023-04-15T13:29:37.833Z,3.42
2023-04-15T13:32:09.563Z,3.50
2023-04-15T13:34:38.532Z,3.17
2023-04-15T13:37:09.869Z,5.13
2023-04-15T13:39:38.279Z,5.45
2023-04-15T13:42:06.499Z,3.22
2023-04-15T13:44:34.953Z,4.63
2023-04-15T13:47:03.310Z,4.22
2023-04-15T13:49:31.625Z,6.10
2023-04-15T13:51:59.745Z,5.55
2023-04-15T13:54:37.153Z,5.28
2023-04-15T13:57:07.284Z,3.38
2023-04-15T13:59:35.968Z,3.17
2023-04-15T14:02:04.362Z,3.05
2023-04-15T14:04:33.159Z,4.60
2023-04-15T14:07:03.403Z,4.78
2023-04-15T14:09:35.415Z,3.45
2023-04-15T14:12:04.122Z,3.72
2023-04-15T14:14:32.427Z,3.85
2023-04-15T14:17:00.707Z,4.22
2023-04-15T14:19:31.363Z,3.28
2023-04-15T14:22:00.571Z,3.67
2023-04-15T14:24:29.261Z,4.97
2023-04-15T14:26:59.750Z,6.50
2023-04-15T14:29:28.147Z,4.60
2023-04-15T14:32:11.483Z,2.95
2023-04-15T14:34:41.086Z,4.97
2023-04-15T14:37:09.474Z,4.82
2023-04-15T14:39:37.774Z,2.80
2023-04-15T14:42:07.466Z,2.55
2023-04-15T14:44:35.861Z,2.45
2023-04-15T14:47:04.121Z,4.15
2023-04-15T14:49:33.063Z,2.90
2023-04-15T14:52:01.343Z,4.60
2023-04-15T14:54:29.724Z,2.20
2023-04-15T14:56:58.564Z,3.05
2023-04-15T14:59:28.284Z,2.00
2023-04-15T15:01:57.200Z,3.28
2023-04-15T15:04:26.056Z,2.60
2023-04-15T15:06:54.566Z,2.65
2023-04-15T15:09:23.895Z,5.28
2023-04-15T15:11:52.125Z,2.83
2023-04-15T15:14:21.927Z,2.65
2023-04-15T15:16:51.799Z,2.55
2023-04-15T15:19:20.031Z,2.35
2023-04-15T15:21:48.294Z,3.63
2023-04-15T15:24:16.708Z,4.03
2023-04-15T15:26:45.188Z,2.58
2023-04-15T15:29:13.438Z,2.95
2023-04-15T15:31:41.736Z,3.45
2023-04-15T15:34:11.402Z,2.10
2023-04-15T15:36:39.643Z,2.15
2023-04-15T15:39:08.010Z,2.80
2023-04-15T15:41:36.699Z,2.13
2023-04-15T15:44:04.966Z,3.80
2023-04-15T15:46:33.231Z,3.17
2023-04-15T15:49:03.562Z,2.30
2023-04-15T15:51:33.414Z,2.60
2023-04-15T15:54:01.807Z,5.22
2023-04-15T15:56:30.089Z,2.10
2023-04-15T15:58:58.624Z,4.00
2023-04-15T16:01:27.176Z,4.22
2023-04-15T16:03:56.146Z,2.67
2023-04-15T16:06:24.960Z,7.30
2023-04-15T16:08:54.573Z,3.45
2023-04-15T16:11:23.132Z,3.25
2023-04-15T16:13:52.104Z,2.38
2023-04-15T16:16:20.379Z,2.78
2023-04-15T16:18:48.709Z,3.83
2023-04-15T16:21:17.194Z,1.98
2023-04-15T16:23:45.792Z,2.83
2023-04-15T16:26:15.531Z,2.67
2023-04-15T16:28:44.026Z,4.78
2023-04-15T16:31:12.810Z,4.45
2023-04-15T16:33:41.451Z,2.60
2023-04-15T16:36:09.902Z,5.18
2023-04-15T16:38:38.239Z,3.92
2023-04-15T16:41:06.787Z,5.30
2023-04-15T16:43:36.638Z,6.10
2023-04-15T16:46:04.797Z,5.30
2023-04-15T16:48:33.187Z,3.25
2023-04-15T16:51:01.645Z,3.38
2023-04-15T16:53:29.924Z,4.68
2023-04-15T16:55:58.220Z,4.10
2023-04-15T16:58:27.753Z,3.38
2023-04-15T17:00:57.467Z,3.50
2023-04-15T17:03:26.568Z,4.28
2023-04-15T17:05:54.847Z,3.42
2023-04-15T17:08:23.041Z,4.47
2023-04-15T17:10:52.040Z,6.30
2023-04-15T17:13:20.313Z,3.28
2023-04-15T17:15:48.961Z,3.70
2023-04-15T17:18:19.286Z,3.50
2023-04-15T17:20:47.498Z,5.05
2023-04-15T17:23:17.261Z,3.83
2023-04-15T17:25:51.788Z,7.28
2023-04-15T17:28:20.430Z,3.05
2023-04-15T17:30:49.022Z,5.75
2023-04-15T17:33:55.288Z,4.70
2023-04-15T17:36:10.386Z,6.60
2023-04-15T17:38:39.067Z,3.88
2023-04-15T17:41:08.504Z,4.20
2023-04-15T17:43:38.767Z,7.00
2023-04-15T17:46:08.234Z,4.18
2023-04-15T17:48:38.545Z,7.95
2023-04-15T17:51:08.045Z,4.63
2023-04-15T17:53:36.877Z,6.53
2023-04-15T17:56:05.511Z,4.18
2023-04-15T17:58:34.483Z,5.80
2023-04-15T18:01:03.298Z,3.65
2023-04-15T18:03:32.168Z,3.22
2023-04-15T18:06:01.890Z,4.13
2023-04-15T18:08:32.554Z,3.65
2023-04-15T18:11:01.405Z,3.85
2023-04-15T18:13:32.460Z,3.80
2023-04-15T18:16:01.203Z,5.68
2023-04-15T18:18:29.886Z,3.63
2023-04-15T18:20:58.520Z,4.43
2023-04-15T18:23:28.560Z,4.05
2023-04-15T18:25:58.221Z,4.03
2023-04-15T18:28:26.934Z,4.65
2023-04-15T18:30:56.751Z,4.07
2023-04-15T18:33:25.631Z,3.67
2023-04-15T18:35:54.690Z,2.85
2023-04-15T18:38:26.754Z,3.90
2023-04-15T18:40:56.713Z,3.65
2023-04-15T18:43:25.324Z,4.00
2023-04-15T18:45:55.049Z,4.80
2023-04-15T18:48:23.772Z,4.43
2023-04-15T18:50:54.128Z,3.97
2023-04-15T18:53:22.888Z,4.45
2023-04-15T18:55:51.126Z,4.68
2023-04-15T18:58:21.304Z,3.80
2023-04-15T19:00:50.033Z,4.10
2023-04-15T19:03:18.754Z,3.58
2023-04-15T19:05:47.271Z,3.97
2023-04-15T19:08:15.921Z,5.65
2023-04-15T19:10:44.581Z,4.93
2023-04-15T19:13:17.067Z,4.00
2023-04-15T19:15:48.403Z,5.05
2023-04-15T19:18:16.619Z,3.17
2023-04-15T19:20:45.044Z,4.35
2023-04-15T19:23:13.684Z,3.53
2023-04-15T19:25:42.313Z,3.72
2023-04-15T19:28:11.489Z,3.70
2023-04-15T19:30:40.036Z,4.25
2023-04-15T19:33:09.773Z,4.45
2023-04-15T19:35:39.581Z,3.92
2023-04-15T19:38:10.354Z,3.47
2023-04-15T19:40:38.903Z,5.93
2023-04-15T19:43:07.186Z,6.45
2023-04-15T19:45:35.780Z,6.03
2023-04-15T19:48:04.143Z,3.45
2023-04-15T19:50:34.918Z,4.03
2023-04-15T19:53:03.203Z,3.90
2023-04-15T19:55:31.825Z,3.47
2023-04-15T19:58:00.705Z,3.95
2023-04-15T20:00:29.036Z,3.75
2023-04-15T20:02:58.252Z,3.58
2023-04-15T20:05:27.771Z,4.47
2023-04-15T20:07:59.779Z,3.97
2023-04-15T20:10:28.341Z,3.85
2023-04-15T20:12:56.896Z,5.38
2023-04-15T20:15:25.524Z,4.72
2023-04-15T20:17:54.213Z,4.40
2023-04-15T20:20:23.082Z,6.53
2023-04-15T20:22:53.475Z,5.80
2023-04-15T20:25:24.336Z,6.22
2023-04-15T20:27:52.932Z,4.97
2023-04-15T20:30:21.310Z,5.25
2023-04-15T20:32:50.167Z,5.68
2023-04-15T20:35:19.850Z,4.85
2023-04-15T20:37:50.685Z,5.05
2023-04-15T20:40:19.125Z,4.55
2023-04-15T20:42:48.817Z,5.10
2023-04-15T20:45:17.896Z,5.45
2023-04-15T20:47:46.368Z,5.80
2023-04-15T20:50:14.983Z,5.60
2023-04-15T20:52:43.515Z,5.95
2023-04-15T20:55:12.063Z,6.00
2023-04-15T20:57:40.474Z,5.22
2023-04-15T21:00:11.235Z,4.78
2023-04-15T21:02:39.904Z,4.50
2023-04-15T21:05:10.195Z,6.10
2023-04-15T21:07:38.772Z,4.45
2023-04-15T21:10:07.721Z,5.20
2023-04-15T21:12:37.542Z,5.35
2023-04-15T21:15:06.789Z,6.32
2023-04-15T21:17:37.008Z,4.47
2023-04-15T21:20:05.868Z,4.43
2023-04-15T21:22:34.480Z,5.43
2023-04-15T21:25:03.234Z,5.03
2023-04-15T21:27:31.425Z,6.38
2023-04-15T21:30:01.567Z,6.53
2023-04-15T21:32:30.718Z,5.43
2023-04-15T21:35:00.522Z,4.55
2023-04-15T21:37:28.711Z,3.90
2023-04-15T21:39:57.200Z,6.10
2023-04-15T21:42:26.183Z,4.03
2023-04-15T21:44:54.517Z,5.13
2023-04-15T21:47:22.769Z,4.03
2023-04-15T21:49:52.689Z,4.13
2023-04-15T21:52:25.330Z,5.15
2023-04-15T21:54:54.231Z,5.90
2023-04-15T21:57:29.432Z,5.97
2023-04-15T21:59:58.694Z,5.30
2023-04-15T22:02:27.405Z,5.10
2023-04-15T22:04:55.797Z,5.35
2023-04-15T22:07:25.531Z,4.05
2023-04-15T22:09:54.094Z,4.93
2023-04-15T22:12:22.410Z,6.88
2023-04-15T22:14:50.672Z,5.63
2023-04-15T22:17:18.835Z,4.80
2023-04-15T22:19:47.412Z,4.57
2023-04-15T22:22:15.568Z,4.82
2023-04-15T22:24:45.155Z,4.78
2023-04-15T22:27:13.322Z,3.65
2023-04-15T22:29:41.586Z,4.93
2023-04-15T22:32:09.723Z,4.63
2023-04-15T22:34:37.920Z,5.80
2023-04-15T22:37:06.729Z,5.13
2023-04-15T22:39:35.274Z,5.72
2023-04-15T22:42:04.939Z,6.63
2023-04-15T22:44:33.252Z,5.82
2023-04-15T22:47:01.383Z,7.60
2023-04-15T22:49:29.717Z,4.90
2023-04-15T22:51:57.941Z,5.80
2023-04-15T22:54:26.250Z,7.82
2023-04-15T22:56:54.420Z,6.65
2023-04-15T22:59:24.056Z,6.22
2023-04-15T23:01:52.846Z,6.15
2023-04-15T23:04:23.213Z,5.43
2023-04-15T23:06:56.206Z,7.20
2023-04-15T23:09:24.427Z,6.20
2023-04-15T23:11:52.729Z,6.78
2023-04-15T23:14:20.950Z,6.70
2023-04-15T23:16:50.618Z,6.72
2023-04-15T23:19:18.727Z,9.50
2023-04-15T23:21:46.988Z,7.97
2023-04-15T23:24:15.158Z,4.75
2023-04-15T23:26:43.713Z,6.72
2023-04-15T23:29:12.134Z,6.20
2023-04-15T23:31:41.686Z,7.15
2023-04-15T23:34:11.380Z,6.90
2023-04-15T23:36:39.754Z,7.43
2023-04-15T23:39:08.634Z,6.75
2023-04-15T23:41:37.885Z,6.47
2023-04-15T23:44:06.707Z,9.02
2023-04-15T23:46:35.018Z,8.05
2023-04-15T23:49:03.261Z,6.32
2023-04-15T23:51:32.806Z,8.70
2023-04-15T23:54:01.407Z,6.35
2023-04-15T23:56:29.777Z,6.30
2023-04-15T23:58:57.858Z,8.40
